sensor_id;sensor_type;location;lat;lon;timestamp;P1;durP1;ratioP1;P2;durP2;ratioP2
73456;SDS011;61691;53.072;6.582;2023-04-01T00:01:23;16.65;;;5.50;;
73456;SDS011;61691;53.072;6.582;2023-04-01T00:03:50;16.15;;;5.28;;
73456;SDS011;61691;53.072;6.582;2023-04-01T00:06:18;17.23;;;5.72;;
73456;SDS011;61691;53.072;6.582;2023-04-01T00:08:45;14.98;;;5.30;;
73456;SDS011;61691;53.072;6.582;2023-04-01T00:11:13;16.98;;;5.00;;
73456;SDS011;61691;53.072;6.582;2023-04-01T00:13:41;17.80;;;6.32;;
73456;SDS011;61691;53.072;6.582;2023-04-01T00:16:08;15.15;;;4.95;;
73456;SDS011;61691;53.072;6.582;2023-04-01T00:18:46;15.52;;;5.15;;
73456;SDS011;61691;53.072;6.582;2023-04-01T00:21:16;14.95;;;4.93;;
73456;SDS011;61691;53.072;6.582;2023-04-01T00:23:44;16.00;;;5.55;;
73456;SDS011;61691;53.072;6.582;2023-04-01T00:26:11;14.82;;;5.15;;
73456;SDS011;61691;53.072;6.582;2023-04-01T00:28:38;14.88;;;5.20;;
73456;SDS011;61691;53.072;6.582;2023-04-01T00:31:06;16.02;;;5.22;;
73456;SDS011;61691;53.072;6.582;2023-04-01T00:33:34;16.40;;;5.20;;
73456;SDS011;61691;53.072;6.582;2023-04-01T00:38:39;15.75;;;4.65;;
73456;SDS011;61691;53.072;6.582;2023-04-01T00:41:08;15.40;;;5.10;;
73456;SDS011;61691;53.072;6.582;2023-04-01T00:43:43;15.23;;;4.85;;
73456;SDS011;61691;53.072;6.582;2023-04-01T00:46:12;16.60;;;4.90;;
73456;SDS011;61691;53.072;6.582;2023-04-01T00:48:39;15.10;;;5.10;;
73456;SDS011;61691;53.072;6.582;2023-04-01T00:51:26;14.55;;;4.60;;
73456;SDS011;61691;53.072;6.582;2023-04-01T00:53:56;14.88;;;4.60;;
73456;SDS011;61691;53.072;6.582;2023-04-01T00:56:30;17.17;;;5.38;;
73456;SDS011;61691;53.072;6.582;2023-04-01T00:59:07;16.92;;;5.63;;
73456;SDS011;61691;53.072;6.582;2023-04-01T01:01:37;17.08;;;5.47;;
73456;SDS011;61691;53.072;6.582;2023-04-01T01:04:04;17.02;;;5.68;;
73456;SDS011;61691;53.072;6.582;2023-04-01T01:06:38;15.73;;;5.50;;
73456;SDS011;61691;53.072;6.582;2023-04-01T01:09:19;17.55;;;5.60;;
73456;SDS011;61691;53.072;6.582;2023-04-01T01:31:00;15.93;;;5.63;;
73456;SDS011;61691;53.072;6.582;2023-04-01T01:33:45;15.98;;;5.45;;
73456;SDS011;61691;53.072;6.582;2023-04-01T01:36:23;16.25;;;5.78;;
73456;SDS011;61691;53.072;6.582;2023-04-01T01:38:55;16.45;;;5.55;;
73456;SDS011;61691;53.072;6.582;2023-04-01T01:41:23;17.80;;;5.47;;
73456;SDS011;61691;53.072;6.582;2023-04-01T01:43:53;16.17;;;5.93;;
73456;SDS011;61691;53.072;6.582;2023-04-01T01:46:23;16.35;;;5.75;;
73456;SDS011;61691;53.072;6.582;2023-04-01T01:48:52;16.00;;;5.70;;
73456;SDS011;61691;53.072;6.582;2023-04-01T01:51:21;16.67;;;5.38;;
73456;SDS011;61691;53.072;6.582;2023-04-01T01:53:48;18.15;;;5.97;;
73456;SDS011;61691;53.072;6.582;2023-04-01T01:56:16;17.13;;;5.68;;
73456;SDS011;61691;53.072;6.582;2023-04-01T01:58:47;15.93;;;5.60;;
73456;SDS011;61691;53.072;6.582;2023-04-01T02:01:19;16.15;;;5.80;;
73456;SDS011;61691;53.072;6.582;2023-04-01T02:03:51;17.17;;;5.80;;
73456;SDS011;61691;53.072;6.582;2023-04-01T02:06:20;17.38;;;5.88;;
73456;SDS011;61691;53.072;6.582;2023-04-01T02:09:04;16.98;;;5.53;;
73456;SDS011;61691;53.072;6.582;2023-04-01T02:11:35;18.40;;;6.10;;
73456;SDS011;61691;53.072;6.582;2023-04-01T02:14:13;15.90;;;6.07;;
73456;SDS011;61691;53.072;6.582;2023-04-01T02:19:35;16.48;;;5.95;;
73456;SDS011;61691;53.072;6.582;2023-04-01T02:22:07;16.55;;;5.53;;
73456;SDS011;61691;53.072;6.582;2023-04-01T02:24:37;17.15;;;6.10;;
73456;SDS011;61691;53.072;6.582;2023-04-01T02:27:06;16.77;;;5.53;;
73456;SDS011;61691;53.072;6.582;2023-04-01T02:29:33;17.08;;;6.05;;
73456;SDS011;61691;53.072;6.582;2023-04-01T02:32:00;19.23;;;6.30;;
73456;SDS011;61691;53.072;6.582;2023-04-01T02:34:27;18.27;;;5.90;;
73456;SDS011;61691;53.072;6.582;2023-04-01T02:36:54;17.48;;;5.97;;
73456;SDS011;61691;53.072;6.582;2023-04-01T02:39:22;17.13;;;6.13;;
73456;SDS011;61691;53.072;6.582;2023-04-01T02:41:49;16.65;;;6.18;;
73456;SDS011;61691;53.072;6.582;2023-04-01T02:44:16;17.83;;;5.20;;
73456;SDS011;61691;53.072;6.582;2023-04-01T02:46:42;17.63;;;5.78;;
73456;SDS011;61691;53.072;6.582;2023-04-01T02:49:09;16.73;;;6.18;;
73456;SDS011;61691;53.072;6.582;2023-04-01T02:51:37;16.77;;;6.53;;
73456;SDS011;61691;53.072;6.582;2023-04-01T02:54:03;17.92;;;5.95;;
73456;SDS011;61691;53.072;6.582;2023-04-01T02:56:30;18.75;;;6.35;;
73456;SDS011;61691;53.072;6.582;2023-04-01T02:58:57;19.17;;;6.72;;
73456;SDS011;61691;53.072;6.582;2023-04-01T03:01:24;17.73;;;7.10;;
73456;SDS011;61691;53.072;6.582;2023-04-01T03:03:51;17.73;;;6.35;;
73456;SDS011;61691;53.072;6.582;2023-04-01T03:06:17;20.27;;;7.38;;
73456;SDS011;61691;53.072;6.582;2023-04-01T03:08:44;16.40;;;6.03;;
73456;SDS011;61691;53.072;6.582;2023-04-01T03:11:11;17.70;;;6.55;;
73456;SDS011;61691;53.072;6.582;2023-04-01T03:13:39;17.65;;;6.68;;
73456;SDS011;61691;53.072;6.582;2023-04-01T03:16:06;19.77;;;7.10;;
73456;SDS011;61691;53.072;6.582;2023-04-01T03:18:33;18.85;;;7.80;;
73456;SDS011;61691;53.072;6.582;2023-04-01T03:21:15;19.92;;;8.00;;
73456;SDS011;61691;53.072;6.582;2023-04-01T03:23:44;19.80;;;8.15;;
73456;SDS011;61691;53.072;6.582;2023-04-01T03:26:11;20.60;;;8.18;;
73456;SDS011;61691;53.072;6.582;2023-04-01T03:28:38;18.65;;;7.80;;
73456;SDS011;61691;53.072;6.582;2023-04-01T03:31:04;22.90;;;9.32;;
73456;SDS011;61691;53.072;6.582;2023-04-01T03:33:32;20.45;;;8.68;;
73456;SDS011;61691;53.072;6.582;2023-04-01T03:35:58;21.85;;;8.80;;
73456;SDS011;61691;53.072;6.582;2023-04-01T03:38:25;19.77;;;8.88;;
73456;SDS011;61691;53.072;6.582;2023-04-01T03:40:52;19.70;;;9.00;;
73456;SDS011;61691;53.072;6.582;2023-04-01T03:43:18;19.88;;;8.95;;
73456;SDS011;61691;53.072;6.582;2023-04-01T03:45:46;21.38;;;9.73;;
73456;SDS011;61691;53.072;6.582;2023-04-01T03:48:14;20.88;;;9.30;;
73456;SDS011;61691;53.072;6.582;2023-04-01T03:50:41;20.45;;;9.02;;
73456;SDS011;61691;53.072;6.582;2023-04-01T03:53:09;18.98;;;8.20;;
73456;SDS011;61691;53.072;6.582;2023-04-01T03:55:36;18.15;;;7.88;;
73456;SDS011;61691;53.072;6.582;2023-04-01T03:58:04;19.88;;;8.48;;
73456;SDS011;61691;53.072;6.582;2023-04-01T04:00:31;21.38;;;9.10;;
73456;SDS011;61691;53.072;6.582;2023-04-01T04:02:58;20.25;;;9.57;;
73456;SDS011;61691;53.072;6.582;2023-04-01T04:05:26;19.15;;;8.75;;
73456;SDS011;61691;53.072;6.582;2023-04-01T04:07:53;21.25;;;10.05;;
73456;SDS011;61691;53.072;6.582;2023-04-01T04:10:20;20.73;;;9.93;;
73456;SDS011;61691;53.072;6.582;2023-04-01T04:12:49;21.15;;;9.77;;
73456;SDS011;61691;53.072;6.582;2023-04-01T04:15:16;21.73;;;9.85;;
73456;SDS011;61691;53.072;6.582;2023-04-01T04:17:44;20.77;;;9.57;;
73456;SDS011;61691;53.072;6.582;2023-04-01T04:20:12;21.70;;;9.85;;
73456;SDS011;61691;53.072;6.582;2023-04-01T04:22:39;22.17;;;9.35;;
73456;SDS011;61691;53.072;6.582;2023-04-01T04:25:06;21.42;;;8.52;;
73456;SDS011;61691;53.072;6.582;2023-04-01T04:27:33;21.65;;;9.02;;
73456;SDS011;61691;53.072;6.582;2023-04-01T04:30:00;21.80;;;9.13;;
73456;SDS011;61691;53.072;6.582;2023-04-01T04:32:27;21.15;;;8.32;;
73456;SDS011;61691;53.072;6.582;2023-04-01T04:34:55;18.25;;;7.50;;
73456;SDS011;61691;53.072;6.582;2023-04-01T04:37:22;18.40;;;7.70;;
73456;SDS011;61691;53.072;6.582;2023-04-01T04:39:48;20.10;;;7.70;;
73456;SDS011;61691;53.072;6.582;2023-04-01T04:42:15;18.27;;;7.90;;
73456;SDS011;61691;53.072;6.582;2023-04-01T04:44:43;17.33;;;6.82;;
73456;SDS011;61691;53.072;6.582;2023-04-01T04:47:09;17.73;;;6.55;;
73456;SDS011;61691;53.072;6.582;2023-04-01T04:49:37;19.83;;;7.00;;
73456;SDS011;61691;53.072;6.582;2023-04-01T04:52:03;18.05;;;6.88;;
73456;SDS011;61691;53.072;6.582;2023-04-01T04:54:30;18.15;;;6.57;;
73456;SDS011;61691;53.072;6.582;2023-04-01T04:56:57;17.55;;;6.63;;
73456;SDS011;61691;53.072;6.582;2023-04-01T04:59:23;17.58;;;6.68;;
73456;SDS011;61691;53.072;6.582;2023-04-01T05:01:50;18.67;;;7.47;;
73456;SDS011;61691;53.072;6.582;2023-04-01T05:04:17;18.83;;;7.13;;
73456;SDS011;61691;53.072;6.582;2023-04-01T05:06:43;18.42;;;6.97;;
73456;SDS011;61691;53.072;6.582;2023-04-01T05:09:11;18.00;;;7.07;;
73456;SDS011;61691;53.072;6.582;2023-04-01T05:11:38;18.17;;;6.82;;
73456;SDS011;61691;53.072;6.582;2023-04-01T05:14:04;18.42;;;7.32;;
73456;SDS011;61691;53.072;6.582;2023-04-01T05:16:31;17.33;;;6.95;;
73456;SDS011;61691;53.072;6.582;2023-04-01T05:18:58;17.98;;;7.68;;
73456;SDS011;61691;53.072;6.582;2023-04-01T05:21:24;19.17;;;7.13;;
73456;SDS011;61691;53.072;6.582;2023-04-01T05:23:51;18.77;;;7.18;;
73456;SDS011;61691;53.072;6.582;2023-04-01T05:26:18;17.92;;;7.32;;
73456;SDS011;61691;53.072;6.582;2023-04-01T05:28:44;18.10;;;7.78;;
73456;SDS011;61691;53.072;6.582;2023-04-01T05:31:11;17.27;;;6.57;;
73456;SDS011;61691;53.072;6.582;2023-04-01T05:33:38;16.98;;;6.47;;
73456;SDS011;61691;53.072;6.582;2023-04-01T05:36:14;16.83;;;6.63;;
73456;SDS011;61691;53.072;6.582;2023-04-01T05:38:42;17.58;;;6.85;;
73456;SDS011;61691;53.072;6.582;2023-04-01T05:41:12;18.23;;;6.43;;
73456;SDS011;61691;53.072;6.582;2023-04-01T05:43:40;16.60;;;5.80;;
73456;SDS011;61691;53.072;6.582;2023-04-01T05:46:07;16.08;;;5.22;;
73456;SDS011;61691;53.072;6.582;2023-04-01T05:48:34;18.45;;;5.50;;
73456;SDS011;61691;53.072;6.582;2023-04-01T05:51:02;14.05;;;3.80;;
73456;SDS011;61691;53.072;6.582;2023-04-01T05:53:29;13.55;;;3.90;;
73456;SDS011;61691;53.072;6.582;2023-04-01T05:55:57;12.90;;;3.20;;
73456;SDS011;61691;53.072;6.582;2023-04-01T06:00:59;14.10;;;3.70;;
73456;SDS011;61691;53.072;6.582;2023-04-01T06:03:37;14.38;;;3.65;;
73456;SDS011;61691;53.072;6.582;2023-04-01T06:06:05;14.30;;;3.72;;
73456;SDS011;61691;53.072;6.582;2023-04-01T06:08:40;13.77;;;3.90;;
73456;SDS011;61691;53.072;6.582;2023-04-01T06:11:18;14.77;;;4.45;;
73456;SDS011;61691;53.072;6.582;2023-04-01T06:13:58;14.40;;;4.28;;
73456;SDS011;61691;53.072;6.582;2023-04-01T06:25:12;18.80;;;8.10;;
73456;SDS011;61691;53.072;6.582;2023-04-01T06:31:10;20.55;;;9.40;;
73456;SDS011;61691;53.072;6.582;2023-04-01T06:34:01;20.67;;;9.70;;
73456;SDS011;61691;53.072;6.582;2023-04-01T06:45:04;23.13;;;12.45;;
73456;SDS011;61691;53.072;6.582;2023-04-01T06:53:35;22.52;;;12.05;;
73456;SDS011;61691;53.072;6.582;2023-04-01T06:56:25;22.75;;;12.60;;
73456;SDS011;61691;53.072;6.582;2023-04-01T07:01:45;22.77;;;11.60;;
73456;SDS011;61691;53.072;6.582;2023-04-01T07:04:31;22.33;;;12.30;;
73456;SDS011;61691;53.072;6.582;2023-04-01T07:07:03;22.67;;;13.20;;
73456;SDS011;61691;53.072;6.582;2023-04-01T07:09:38;24.63;;;13.57;;
73456;SDS011;61691;53.072;6.582;2023-04-01T07:15:13;25.33;;;14.50;;
73456;SDS011;61691;53.072;6.582;2023-04-01T07:17:42;22.90;;;12.70;;
73456;SDS011;61691;53.072;6.582;2023-04-01T07:20:20;24.77;;;12.80;;
73456;SDS011;61691;53.072;6.582;2023-04-01T07:22:54;23.63;;;12.30;;
73456;SDS011;61691;53.072;6.582;2023-04-01T07:25:29;24.23;;;11.98;;
73456;SDS011;61691;53.072;6.582;2023-04-01T07:28:05;24.77;;;13.10;;
73456;SDS011;61691;53.072;6.582;2023-04-01T07:33:35;26.07;;;12.83;;
73456;SDS011;61691;53.072;6.582;2023-04-01T07:36:19;22.67;;;11.70;;
73456;SDS011;61691;53.072;6.582;2023-04-01T07:38:55;23.38;;;13.20;;
73456;SDS011;61691;53.072;6.582;2023-04-01T07:44:03;24.83;;;12.85;;
73456;SDS011;61691;53.072;6.582;2023-04-01T07:57:26;25.00;;;13.75;;
73456;SDS011;61691;53.072;6.582;2023-04-01T08:00:00;26.20;;;14.50;;
73456;SDS011;61691;53.072;6.582;2023-04-01T08:02:36;25.70;;;13.48;;
73456;SDS011;61691;53.072;6.582;2023-04-01T08:05:19;26.08;;;15.27;;
73456;SDS011;61691;53.072;6.582;2023-04-01T08:10:51;28.75;;;15.10;;
73456;SDS011;61691;53.072;6.582;2023-04-01T08:13:41;25.48;;;14.50;;
73456;SDS011;61691;53.072;6.582;2023-04-01T08:21:35;25.95;;;14.05;;
73456;SDS011;61691;53.072;6.582;2023-04-01T08:27:22;24.58;;;13.57;;
73456;SDS011;61691;53.072;6.582;2023-04-01T08:29:59;24.88;;;13.02;;
73456;SDS011;61691;53.072;6.582;2023-04-01T08:32:36;25.60;;;14.80;;
73456;SDS011;61691;53.072;6.582;2023-04-01T08:37:55;23.17;;;12.32;;
73456;SDS011;61691;53.072;6.582;2023-04-01T08:54:46;24.27;;;12.40;;
73456;SDS011;61691;53.072;6.582;2023-04-01T09:05:31;19.27;;;8.68;;
73456;SDS011;61691;53.072;6.582;2023-04-01T09:08:25;24.25;;;11.82;;
73456;SDS011;61691;53.072;6.582;2023-04-01T09:19:59;23.00;;;12.48;;
73456;SDS011;61691;53.072;6.582;2023-04-01T09:22:51;23.23;;;11.90;;
73456;SDS011;61691;53.072;6.582;2023-04-01T09:42:13;20.98;;;9.07;;
73456;SDS011;61691;53.072;6.582;2023-04-01T09:44:44;18.80;;;8.38;;
73456;SDS011;61691;53.072;6.582;2023-04-01T10:07:37;13.88;;;3.95;;
73456;SDS011;61691;53.072;6.582;2023-04-01T10:10:36;14.88;;;4.40;;
73456;SDS011;61691;53.072;6.582;2023-04-01T10:13:14;14.98;;;4.40;;
73456;SDS011;61691;53.072;6.582;2023-04-01T10:54:33;9.82;;;2.80;;
73456;SDS011;61691;53.072;6.582;2023-04-01T10:57:27;11.57;;;2.60;;
73456;SDS011;61691;53.072;6.582;2023-04-01T11:00:31;9.15;;;2.50;;
73456;SDS011;61691;53.072;6.582;2023-04-01T11:12:09;8.45;;;2.60;;
73456;SDS011;61691;53.072;6.582;2023-04-01T11:20:33;11.20;;;3.00;;
73456;SDS011;61691;53.072;6.582;2023-04-01T11:23:27;10.43;;;2.50;;
73456;SDS011;61691;53.072;6.582;2023-04-01T11:28:54;7.55;;;2.25;;
73456;SDS011;61691;53.072;6.582;2023-04-01T11:34:43;9.20;;;2.70;;
73456;SDS011;61691;53.072;6.582;2023-04-01T11:37:37;8.40;;;2.60;;
73456;SDS011;61691;53.072;6.582;2023-04-01T12:13:58;7.68;;;2.35;;
73456;SDS011;61691;53.072;6.582;2023-04-01T12:36:16;9.90;;;2.58;;
73456;SDS011;61691;53.072;6.582;2023-04-01T12:55:43;9.00;;;2.55;;
73456;SDS011;61691;53.072;6.582;2023-04-01T12:58:15;10.82;;;3.10;;
73456;SDS011;61691;53.072;6.582;2023-04-01T13:01:07;12.05;;;2.88;;
73456;SDS011;61691;53.072;6.582;2023-04-01T13:26:52;9.02;;;2.40;;
73456;SDS011;61691;53.072;6.582;2023-04-01T13:29:10;5.88;;;2.00;;
73456;SDS011;61691;53.072;6.582;2023-04-01T13:31:49;6.68;;;2.10;;
73456;SDS011;61691;53.072;6.582;2023-04-01T13:40:02;8.18;;;2.30;;
73456;SDS011;61691;53.072;6.582;2023-04-01T13:42:49;7.43;;;2.10;;
73456;SDS011;61691;53.072;6.582;2023-04-01T13:45:24;6.47;;;2.17;;
73456;SDS011;61691;53.072;6.582;2023-04-01T13:56:45;5.90;;;1.85;;
73456;SDS011;61691;53.072;6.582;2023-04-01T14:13:23;6.95;;;1.95;;
73456;SDS011;61691;53.072;6.582;2023-04-01T14:16:03;6.70;;;2.10;;
73456;SDS011;61691;53.072;6.582;2023-04-01T14:42:23;6.68;;;2.03;;
73456;SDS011;61691;53.072;6.582;2023-04-01T14:48:36;7.88;;;2.38;;
73456;SDS011;61691;53.072;6.582;2023-04-01T14:51:12;6.18;;;2.15;;
73456;SDS011;61691;53.072;6.582;2023-04-01T14:56:34;9.35;;;2.40;;
73456;SDS011;61691;53.072;6.582;2023-04-01T14:59:26;6.05;;;2.00;;
73456;SDS011;61691;53.072;6.582;2023-04-01T15:01:59;6.95;;;2.10;;
73456;SDS011;61691;53.072;6.582;2023-04-01T15:07:42;11.00;;;2.78;;
73456;SDS011;61691;53.072;6.582;2023-04-01T15:13:15;12.85;;;2.83;;
73456;SDS011;61691;53.072;6.582;2023-04-01T15:24:48;6.57;;;2.00;;
73456;SDS011;61691;53.072;6.582;2023-04-01T15:30:29;7.55;;;2.50;;
73456;SDS011;61691;53.072;6.582;2023-04-01T15:44:24;8.77;;;2.40;;
73456;SDS011;61691;53.072;6.582;2023-04-01T15:47:00;9.23;;;2.65;;
73456;SDS011;61691;53.072;6.582;2023-04-01T15:49:36;10.65;;;2.90;;
73456;SDS011;61691;53.072;6.582;2023-04-01T15:57:46;9.77;;;2.72;;
73456;SDS011;61691;53.072;6.582;2023-04-01T16:00:47;11.85;;;3.10;;
73456;SDS011;61691;53.072;6.582;2023-04-01T16:03:33;11.20;;;2.83;;
73456;SDS011;61691;53.072;6.582;2023-04-01T16:11:57;14.45;;;3.05;;
73456;SDS011;61691;53.072;6.582;2023-04-01T16:20:20;13.07;;;3.10;;
73456;SDS011;61691;53.072;6.582;2023-04-01T16:23:02;11.90;;;3.30;;
73456;SDS011;61691;53.072;6.582;2023-04-01T16:30:48;15.45;;;4.53;;
73456;SDS011;61691;53.072;6.582;2023-04-01T16:36:22;14.30;;;4.22;;
73456;SDS011;61691;53.072;6.582;2023-04-01T16:41:46;14.60;;;4.05;;
73456;SDS011;61691;53.072;6.582;2023-04-01T16:44:22;15.85;;;4.35;;
73456;SDS011;61691;53.072;6.582;2023-04-01T16:55:15;14.52;;;3.55;;
73456;SDS011;61691;53.072;6.582;2023-04-01T16:57:56;14.25;;;3.88;;
73456;SDS011;61691;53.072;6.582;2023-04-01T17:00:48;14.75;;;3.90;;
73456;SDS011;61691;53.072;6.582;2023-04-01T17:03:26;18.80;;;4.13;;
73456;SDS011;61691;53.072;6.582;2023-04-01T17:09:13;15.98;;;4.32;;
73456;SDS011;61691;53.072;6.582;2023-04-01T17:14:14;15.65;;;4.50;;
73456;SDS011;61691;53.072;6.582;2023-04-01T17:19:54;18.60;;;5.65;;
73456;SDS011;61691;53.072;6.582;2023-04-01T17:22:48;16.67;;;4.57;;
73456;SDS011;61691;53.072;6.582;2023-04-01T17:30:29;14.45;;;3.80;;
73456;SDS011;61691;53.072;6.582;2023-04-01T17:38:50;19.58;;;4.85;;
73456;SDS011;61691;53.072;6.582;2023-04-01T17:52:28;15.80;;;4.20;;
73456;SDS011;61691;53.072;6.582;2023-04-01T17:55:28;14.13;;;3.80;;
73456;SDS011;61691;53.072;6.582;2023-04-01T17:58:19;14.05;;;4.25;;
73456;SDS011;61691;53.072;6.582;2023-04-01T18:06:36;15.80;;;4.40;;
73456;SDS011;61691;53.072;6.582;2023-04-01T18:11:56;14.93;;;4.50;;
73456;SDS011;61691;53.072;6.582;2023-04-01T18:15:06;15.20;;;4.32;;
73456;SDS011;61691;53.072;6.582;2023-04-01T18:20:33;15.32;;;4.20;;
73456;SDS011;61691;53.072;6.582;2023-04-01T18:25:44;15.93;;;4.50;;
73456;SDS011;61691;53.072;6.582;2023-04-01T18:28:34;14.68;;;3.95;;
73456;SDS011;61691;53.072;6.582;2023-04-01T18:31:55;15.73;;;4.22;;
73456;SDS011;61691;53.072;6.582;2023-04-01T18:40:03;15.23;;;4.05;;
73456;SDS011;61691;53.072;6.582;2023-04-01T18:46:07;28.08;;;5.63;;
73456;SDS011;61691;53.072;6.582;2023-04-01T18:51:38;16.05;;;4.85;;
73456;SDS011;61691;53.072;6.582;2023-04-01T18:54:29;16.95;;;5.45;;
73456;SDS011;61691;53.072;6.582;2023-04-01T18:57:08;16.73;;;4.90;;
73456;SDS011;61691;53.072;6.582;2023-04-01T18:59:44;18.08;;;5.13;;
73456;SDS011;61691;53.072;6.582;2023-04-01T19:02:25;16.15;;;4.88;;
73456;SDS011;61691;53.072;6.582;2023-04-01T19:05:12;16.33;;;5.32;;
73456;SDS011;61691;53.072;6.582;2023-04-01T19:07:52;19.83;;;5.82;;
73456;SDS011;61691;53.072;6.582;2023-04-01T19:10:35;18.73;;;4.50;;
73456;SDS011;61691;53.072;6.582;2023-04-01T19:13:54;16.60;;;5.30;;
73456;SDS011;61691;53.072;6.582;2023-04-01T19:21:42;18.40;;;4.43;;
73456;SDS011;61691;53.072;6.582;2023-04-01T19:46:48;21.85;;;7.00;;
73456;SDS011;61691;53.072;6.582;2023-04-01T19:52:13;18.30;;;6.18;;
73456;SDS011;61691;53.072;6.582;2023-04-01T19:57:51;22.75;;;6.00;;
73456;SDS011;61691;53.072;6.582;2023-04-01T20:00:37;21.75;;;6.30;;
73456;SDS011;61691;53.072;6.582;2023-04-01T20:03:25;21.35;;;6.25;;
73456;SDS011;61691;53.072;6.582;2023-04-01T20:14:43;16.67;;;5.15;;
73456;SDS011;61691;53.072;6.582;2023-04-01T20:23:06;17.38;;;4.93;;
73456;SDS011;61691;53.072;6.582;2023-04-01T20:25:54;22.70;;;6.38;;
73456;SDS011;61691;53.072;6.582;2023-04-01T20:31:43;17.48;;;5.13;;
73456;SDS011;61691;53.072;6.582;2023-04-01T20:34:39;18.08;;;5.40;;
73456;SDS011;61691;53.072;6.582;2023-04-01T20:37:31;17.35;;;5.00;;
73456;SDS011;61691;53.072;6.582;2023-04-01T20:45:33;17.90;;;5.00;;
73456;SDS011;61691;53.072;6.582;2023-04-01T20:51:43;22.27;;;5.57;;
73456;SDS011;61691;53.072;6.582;2023-04-01T20:56:22;16.98;;;4.45;;
73456;SDS011;61691;53.072;6.582;2023-04-01T21:07:25;16.83;;;5.03;;
73456;SDS011;61691;53.072;6.582;2023-04-01T21:23:46;18.00;;;4.85;;
73456;SDS011;61691;53.072;6.582;2023-04-01T21:26:42;17.50;;;5.88;;
73456;SDS011;61691;53.072;6.582;2023-04-01T21:32:18;18.13;;;4.38;;
73456;SDS011;61691;53.072;6.582;2023-04-01T21:34:52;17.52;;;4.57;;
73456;SDS011;61691;53.072;6.582;2023-04-01T21:37:41;19.15;;;4.90;;
73456;SDS011;61691;53.072;6.582;2023-04-01T21:54:50;16.42;;;4.68;;
73456;SDS011;61691;53.072;6.582;2023-04-01T22:00:14;17.48;;;4.25;;
73456;SDS011;61691;53.072;6.582;2023-04-01T22:13:26;17.60;;;4.63;;
73456;SDS011;61691;53.072;6.582;2023-04-01T22:18:55;16.83;;;4.82;;
73456;SDS011;61691;53.072;6.582;2023-04-01T22:21:47;20.77;;;4.90;;
73456;SDS011;61691;53.072;6.582;2023-04-01T22:26:59;16.73;;;4.30;;
73456;SDS011;61691;53.072;6.582;2023-04-01T22:29:46;16.42;;;4.72;;
73456;SDS011;61691;53.072;6.582;2023-04-01T22:37:57;16.70;;;3.92;;
73456;SDS011;61691;53.072;6.582;2023-04-01T22:43:20;17.15;;;4.32;;
73456;SDS011;61691;53.072;6.582;2023-04-01T22:46:03;14.98;;;3.80;;
73456;SDS011;61691;53.072;6.582;2023-04-01T22:48:57;16.38;;;3.70;;
73456;SDS011;61691;53.072;6.582;2023-04-01T22:51:42;15.25;;;3.63;;
73456;SDS011;61691;53.072;6.582;2023-04-01T22:54:15;18.92;;;4.00;;
73456;SDS011;61691;53.072;6.582;2023-04-01T22:59:42;16.73;;;4.05;;
73456;SDS011;61691;53.072;6.582;2023-04-01T23:02:16;12.68;;;3.40;;
73456;SDS011;61691;53.072;6.582;2023-04-01T23:04:49;12.60;;;3.00;;
73456;SDS011;61691;53.072;6.582;2023-04-01T23:10:26;16.60;;;3.92;;
73456;SDS011;61691;53.072;6.582;2023-04-01T23:13:05;17.00;;;3.50;;
73456;SDS011;61691;53.072;6.582;2023-04-01T23:15:42;14.77;;;3.63;;
73456;SDS011;61691;53.072;6.582;2023-04-01T23:21:01;16.10;;;4.22;;
73456;SDS011;61691;53.072;6.582;2023-04-01T23:26:35;15.35;;;3.95;;
73456;SDS011;61691;53.072;6.582;2023-04-01T23:29:02;16.67;;;3.88;;
73456;SDS011;61691;53.072;6.582;2023-04-01T23:31:36;13.70;;;3.47;;
73456;SDS011;61691;53.072;6.582;2023-04-01T23:36:38;14.52;;;3.78;;
73456;SDS011;61691;53.072;6.582;2023-04-01T23:39:41;17.70;;;4.43;;
73456;SDS011;61691;53.072;6.582;2023-04-01T23:42:15;15.50;;;4.00;;
73456;SDS011;61691;53.072;6.582;2023-04-01T23:44:48;16.92;;;3.90;;
73456;SDS011;61691;53.072;6.582;2023-04-01T23:47:24;13.77;;;3.22;;
73456;SDS011;61691;53.072;6.582;2023-04-01T23:50:11;15.35;;;4.10;;
73456;SDS011;61691;53.072;6.582;2023-04-01T23:52:51;16.33;;;4.07;;
73456;SDS011;61691;53.072;6.582;2023-04-01T23:55:28;18.73;;;4.40;;
